Huangshi, China
Current Conditions -  °F | °C
As of 2:00 AM on Friday 28 Nov 2014 (Local Time) from ZHHH Reporting Station
Scattered Clouds Scattered Clouds  
Wind Chill: 52°   Ceiling: Unl
Heat Index: 52°   Visibility: 4mi
Dew Point: 50°   Wind: 4mph
Humidity: 94%   Direction: 10°N
Pressure: 30.12"   Gusts: NA
Location:  30.22°N, 115.1°E
Report Text: ZHHH 271800Z 01002MPS 320V060 6000 SCT016 11/10 Q1020 NOSIG
Loading
Personal Weather Stations






























Interactive Weather Map New forecast layout! Learn more

10-Day Weather Forecast

Advertisements
Track Severe Weather on mobile